Dodge City, Kansas
Current Conditions -  °F | °C
As of 7:01 AM on Friday 19 Dec 2014 (Local Time) from KDDC Reporting Station
Haze Haze  
Wind Chill: 29°   Ceiling: 200
Heat Index: 33°   Visibility: 2.5mi
Dew Point: 31°   Wind: 5mph
Humidity: 92%   Direction: 220°SW
Pressure: 30.14"   Gusts: NA
Location:  37.75°N, 100.01°W
Report Text: KDDC 191301Z AUTO 22004KT 2 1/2SM BR OVC002 01/M01 A3014 RMK AO2 T00061006
Loading
Personal Weather Stations






























Interactive Weather Map New forecast layout! Learn more

10-Day Weather Forecast

Advertisements
Track Severe Weather on mobile